createdAt,value
2018-09-22T00:00:19.153Z,10.03
2018-09-22T00:02:51.225Z,8.50
2018-09-22T00:05:22.527Z,10.40
2018-09-22T00:07:58.906Z,11.20
2018-09-22T00:10:29.556Z,9.93
2018-09-22T00:12:59.647Z,9.87
2018-09-22T00:15:33.784Z,7.40
2018-09-22T00:18:04.912Z,7.80
2018-09-22T00:20:35.462Z,7.70
2018-09-22T00:23:10.164Z,8.40
2018-09-22T00:25:46.913Z,11.40
2018-09-22T00:28:17.927Z,8.57
2018-09-22T00:30:49.080Z,8.67
2018-09-22T00:33:20.363Z,9.43
2018-09-22T00:35:51.073Z,10.10
2018-09-22T00:38:23.638Z,11.00
2018-09-22T00:40:54.468Z,13.70
2018-09-22T00:43:25.528Z,7.53
2018-09-22T00:45:57.407Z,9.00
2018-09-22T00:48:29.328Z,9.00
2018-09-22T00:51:00.399Z,9.60
2018-09-22T00:53:32.206Z,8.73
2018-09-22T00:56:03.062Z,10.27
2018-09-22T00:58:34.643Z,7.43
2018-09-22T01:01:04.962Z,9.57
2018-09-22T01:03:35.094Z,6.43
2018-09-22T01:06:05.280Z,11.37
2018-09-22T01:08:35.236Z,13.40
2018-09-22T01:11:05.047Z,8.93
2018-09-22T01:13:36.175Z,13.47
2018-09-22T01:16:06.224Z,12.83
2018-09-22T01:18:36.192Z,9.83
2018-09-22T01:21:07.753Z,12.13
2018-09-22T01:23:37.955Z,10.10
2018-09-22T01:26:08.621Z,12.33
2018-09-22T01:28:44.259Z,14.67
2018-09-22T01:31:14.302Z,12.00
2018-09-22T01:33:44.818Z,10.03
2018-09-22T01:36:19.414Z,10.03
2018-09-22T01:38:50.122Z,17.13
2018-09-22T01:41:20.228Z,13.90
2018-09-22T01:43:50.096Z,7.17
2018-09-22T01:46:20.172Z,8.57
2018-09-22T01:48:50.230Z,9.50
2018-09-22T01:51:20.416Z,10.17
2018-09-22T01:53:50.376Z,10.77
2018-09-22T01:56:20.247Z,5.47
2018-09-22T01:58:50.405Z,9.93
2018-09-22T02:01:20.318Z,8.03
2018-09-22T02:03:50.120Z,9.60
2018-09-22T02:06:19.984Z,8.07
2018-09-22T02:08:49.893Z,11.03
2018-09-22T02:11:19.807Z,7.63
2018-09-22T02:13:49.807Z,19.03
2018-09-22T02:16:19.547Z,10.33
2018-09-22T02:18:49.396Z,11.43
2018-09-22T02:21:19.052Z,11.37
2018-09-22T02:23:48.852Z,7.23
2018-09-22T02:26:18.819Z,11.13
2018-09-22T02:28:48.676Z,10.80
2018-09-22T02:31:18.610Z,11.07
2018-09-22T02:33:48.522Z,9.90
2018-09-22T02:36:18.311Z,10.97
2018-09-22T02:38:48.251Z,8.17
2018-09-22T02:41:18.162Z,15.27
2018-09-22T02:43:47.920Z,17.37
2018-09-22T02:46:18.044Z,11.27
2018-09-22T02:48:47.894Z,8.43
2018-09-22T02:51:17.686Z,11.13
2018-09-22T02:53:47.539Z,9.23
2018-09-22T02:56:18.051Z,8.10
2018-09-22T02:58:48.753Z,6.57
2018-09-22T03:01:18.710Z,11.27
2018-09-22T03:03:48.598Z,6.83
2018-09-22T03:06:18.868Z,11.07
2018-09-22T03:08:48.740Z,10.13
2018-09-22T03:11:18.545Z,8.20
2018-09-22T03:13:48.358Z,9.23
2018-09-22T03:16:18.162Z,8.57
2018-09-22T03:18:48.266Z,11.00
2018-09-22T03:21:18.327Z,7.60
2018-09-22T03:23:48.267Z,8.20
2018-09-22T03:26:18.158Z,6.90
2018-09-22T03:28:47.990Z,11.57
2018-09-22T03:31:20.147Z,10.53
2018-09-22T03:33:49.984Z,11.23
2018-09-22T03:36:19.978Z,9.67
2018-09-22T03:38:49.870Z,9.13
2018-09-22T03:41:19.818Z,9.23
2018-09-22T03:43:49.831Z,10.57
2018-09-22T03:46:19.648Z,8.37
2018-09-22T03:48:49.390Z,8.90
2018-09-22T03:51:19.063Z,7.87
2018-09-22T03:53:48.976Z,9.00
2018-09-22T03:56:18.710Z,9.57
2018-09-22T03:58:48.515Z,9.13
2018-09-22T04:01:18.260Z,10.33
2018-09-22T04:03:47.943Z,8.27
2018-09-22T04:06:17.626Z,7.70
2018-09-22T04:08:47.410Z,8.87
2018-09-22T04:11:17.057Z,11.83
2018-09-22T04:13:46.870Z,6.70
2018-09-22T04:16:16.616Z,9.83
2018-09-22T04:18:46.483Z,10.97
2018-09-22T04:21:16.357Z,11.97
2018-09-22T04:23:46.300Z,15.20
2018-09-22T04:26:15.946Z,15.30
2018-09-22T04:28:45.684Z,15.77
2018-09-22T04:31:15.655Z,15.87
2018-09-22T04:33:45.464Z,15.23
2018-09-22T04:36:15.508Z,16.30
2018-09-22T04:38:52.007Z,11.57
2018-09-22T04:41:21.728Z,13.23
2018-09-22T04:43:51.548Z,14.43
2018-09-22T04:46:21.314Z,17.07
2018-09-22T04:48:51.055Z,15.20
2018-09-22T04:51:20.815Z,12.33
2018-09-22T04:53:50.485Z,19.23
2018-09-22T04:56:27.007Z,12.50
2018-09-22T04:58:57.323Z,12.50
2018-09-22T05:01:27.613Z,17.27
2018-09-22T05:03:57.322Z,12.80
2018-09-22T05:06:27.064Z,15.67
2018-09-22T05:08:56.975Z,15.03
2018-09-22T05:11:26.733Z,13.97
2018-09-22T05:13:56.508Z,17.17
2018-09-22T05:16:26.304Z,12.93
2018-09-22T05:18:56.143Z,14.00
2018-09-22T05:21:25.784Z,18.30
2018-09-22T05:23:55.522Z,13.03
2018-09-22T05:26:25.260Z,17.03
2018-09-22T05:28:54.922Z,13.27
2018-09-22T05:31:24.706Z,17.53
2018-09-22T05:33:54.385Z,14.70
2018-09-22T05:36:24.127Z,15.37
2018-09-22T05:38:54.049Z,16.87
2018-09-22T05:41:23.973Z,18.57
2018-09-22T05:43:53.782Z,19.53
2018-09-22T05:46:23.522Z,14.77
2018-09-22T05:48:53.263Z,10.20
2018-09-22T05:51:23.084Z,19.07
2018-09-22T05:53:52.719Z,13.47
2018-09-22T05:56:22.468Z,12.70
2018-09-22T05:58:52.241Z,13.73
2018-09-22T06:01:21.964Z,19.83
2018-09-22T06:03:58.612Z,17.07
2018-09-22T06:06:28.165Z,15.60
2018-09-22T06:08:57.869Z,11.40
2018-09-22T06:11:27.606Z,13.63
2018-09-22T06:13:57.262Z,15.50
2018-09-22T06:16:26.993Z,17.20
2018-09-22T06:18:56.744Z,13.73
2018-09-22T06:21:26.492Z,15.40
2018-09-22T06:23:56.404Z,14.50
2018-09-22T06:26:26.284Z,15.20
2018-09-22T06:28:56.142Z,12.57
2018-09-22T06:31:25.897Z,10.73
2018-09-22T06:33:55.790Z,13.23
2018-09-22T06:36:25.651Z,8.97
2018-09-22T06:38:55.409Z,14.40
2018-09-22T06:41:25.198Z,16.03
2018-09-22T06:43:55.023Z,12.43
2018-09-22T06:46:24.767Z,13.07
2018-09-22T06:48:54.514Z,10.70
2018-09-22T06:51:24.539Z,15.37
2018-09-22T06:53:54.441Z,18.87
2018-09-22T06:56:24.324Z,11.90
2018-09-22T06:58:54.129Z,14.80
2018-09-22T07:01:23.983Z,15.37
2018-09-22T07:03:53.806Z,15.27
2018-09-22T07:06:23.708Z,11.17
2018-09-22T07:08:53.626Z,15.37
2018-09-22T07:11:23.422Z,12.07
2018-09-22T07:13:53.174Z,17.10
2018-09-22T07:16:23.376Z,14.03
2018-09-22T07:18:53.158Z,14.03
2018-09-22T07:21:28.099Z,10.07
2018-09-22T07:23:57.891Z,15.83
2018-09-22T07:26:27.704Z,14.70
2018-09-22T07:28:57.541Z,13.60
2018-09-22T07:31:27.300Z,11.77
2018-09-22T07:33:56.980Z,11.80
2018-09-22T07:36:26.673Z,11.77
2018-09-22T07:38:56.335Z,14.00
2018-09-22T07:41:26.079Z,8.30
2018-09-22T07:43:55.791Z,12.53
2018-09-22T07:46:25.447Z,15.23
2018-09-22T07:48:55.052Z,13.00
2018-09-22T07:51:24.700Z,9.70
2018-09-22T07:53:57.222Z,11.40
2018-09-22T07:56:27.249Z,12.83
2018-09-22T07:58:57.146Z,12.50
2018-09-22T08:01:27.157Z,13.50
2018-09-22T08:03:56.976Z,12.83
2018-09-22T08:06:26.903Z,10.40
2018-09-22T08:08:56.808Z,17.47
2018-09-22T08:11:26.696Z,15.93
2018-09-22T08:13:56.512Z,12.40
2018-09-22T08:16:26.368Z,11.00
2018-09-22T08:18:56.242Z,13.60
2018-09-22T08:21:26.100Z,11.83
2018-09-22T08:23:55.884Z,10.47
2018-09-22T08:26:25.560Z,14.23
2018-09-22T08:28:55.270Z,10.03
2018-09-22T08:31:25.121Z,14.10
2018-09-22T08:33:54.848Z,13.53
2018-09-22T08:36:24.687Z,11.03
2018-09-22T08:38:54.226Z,12.17
2018-09-22T08:41:23.943Z,14.07
2018-09-22T08:43:53.656Z,11.40
2018-09-22T08:46:23.377Z,16.47
2018-09-22T08:48:53.106Z,9.43
2018-09-22T08:51:22.800Z,9.30
2018-09-22T08:53:52.537Z,9.87
2018-09-22T08:56:22.296Z,14.90
2018-09-22T08:58:52.136Z,10.30
2018-09-22T09:01:21.900Z,12.97
2018-09-22T09:03:51.661Z,16.80
2018-09-22T09:06:21.621Z,11.33
2018-09-22T09:08:51.336Z,12.17
2018-09-22T09:11:21.207Z,11.10
2018-09-22T09:13:50.904Z,10.83
2018-09-22T09:16:20.707Z,10.60
2018-09-22T09:18:56.583Z,11.33
2018-09-22T09:21:26.319Z,13.27
2018-09-22T09:23:55.932Z,9.90
2018-09-22T09:26:25.742Z,12.37
2018-09-22T09:28:55.523Z,13.53
2018-09-22T09:31:25.246Z,9.27
2018-09-22T09:33:54.915Z,14.53
2018-09-22T09:36:24.742Z,10.50
2018-09-22T09:38:58.778Z,9.20
2018-09-22T09:41:28.679Z,12.10
2018-09-22T09:43:58.361Z,11.50
2018-09-22T09:46:28.208Z,13.43
2018-09-22T09:48:58.834Z,9.53
2018-09-22T09:51:28.663Z,7.37
2018-09-22T09:53:58.436Z,10.50
2018-09-22T09:56:28.162Z,6.97
2018-09-22T09:58:57.880Z,7.60
2018-09-22T10:01:27.621Z,13.80
2018-09-22T10:03:57.996Z,9.63
2018-09-22T10:06:27.822Z,10.00
2018-09-22T10:08:57.630Z,11.20
2018-09-22T10:11:27.531Z,12.33
2018-09-22T10:13:57.304Z,14.47
2018-09-22T10:16:27.076Z,12.50
2018-09-22T10:18:57.031Z,10.73
2018-09-22T10:21:26.893Z,7.20
2018-09-22T10:23:56.592Z,9.80
2018-09-22T10:26:26.433Z,7.80
2018-09-22T10:28:56.527Z,12.30
2018-09-22T10:31:26.481Z,11.53
2018-09-22T10:33:56.318Z,10.60
2018-09-22T10:36:25.958Z,8.43
2018-09-22T10:38:56.693Z,8.10
2018-09-22T10:41:26.431Z,9.83
2018-09-22T10:43:56.187Z,9.60
2018-09-22T10:46:25.965Z,9.33
2018-09-22T10:48:55.761Z,7.50
2018-09-22T10:51:25.595Z,9.97
2018-09-22T10:53:55.565Z,9.60
2018-09-22T10:56:25.235Z,11.07
2018-09-22T10:58:54.902Z,11.07
2018-09-22T11:01:24.517Z,11.97
2018-09-22T11:04:00.944Z,14.30
2018-09-22T11:06:30.808Z,8.67
2018-09-22T11:09:00.434Z,10.67
2018-09-22T11:11:30.331Z,12.90
2018-09-22T11:13:59.938Z,9.23
2018-09-22T11:16:29.622Z,9.37
2018-09-22T11:18:59.339Z,14.97
2018-09-22T11:21:28.985Z,7.97
2018-09-22T11:23:58.602Z,6.90
2018-09-22T11:26:28.294Z,6.17
2018-09-22T11:28:57.933Z,12.30
2018-09-22T11:31:27.605Z,7.73
2018-09-22T11:33:57.275Z,11.10
2018-09-22T11:36:26.939Z,12.00
2018-09-22T11:38:56.589Z,7.83
2018-09-22T11:41:26.321Z,10.30
2018-09-22T11:43:56.020Z,7.70
2018-09-22T11:46:25.746Z,8.83
2018-09-22T11:48:55.390Z,7.73
2018-09-22T11:51:25.011Z,8.80
2018-09-22T11:53:54.878Z,7.57
2018-09-22T11:56:24.554Z,6.10
2018-09-22T11:58:54.185Z,9.27
2018-09-22T12:01:23.880Z,9.60
2018-09-22T12:03:53.585Z,7.10
2018-09-22T12:06:23.355Z,12.73
2018-09-22T12:08:53.375Z,8.77
2018-09-22T12:11:23.038Z,7.07
2018-09-22T12:13:52.868Z,8.73
2018-09-22T12:16:22.670Z,7.30
2018-09-22T12:18:52.419Z,5.53
2018-09-22T12:21:22.282Z,7.67
2018-09-22T12:23:52.051Z,6.27
2018-09-22T12:26:21.960Z,7.17
2018-09-22T12:28:51.715Z,7.53
2018-09-22T12:31:21.449Z,5.00
2018-09-22T12:33:51.422Z,6.73
2018-09-22T12:36:21.069Z,7.93
2018-09-22T12:38:50.748Z,6.17
2018-09-22T12:41:20.549Z,7.40
2018-09-22T12:43:50.338Z,7.43
2018-09-22T12:46:19.932Z,5.17
2018-09-22T12:48:49.690Z,6.47
2018-09-22T12:51:19.400Z,7.20
2018-09-22T12:53:49.726Z,8.90
2018-09-22T12:56:19.330Z,7.63
2018-09-22T12:58:49.055Z,5.03
2018-09-22T13:01:18.726Z,8.33
2018-09-22T13:03:48.462Z,4.67
2018-09-22T13:06:18.247Z,6.10
2018-09-22T13:08:47.871Z,4.17
2018-09-22T13:11:17.542Z,10.23
2018-09-22T13:13:49.496Z,4.87
2018-09-22T13:19:41.329Z,7.37
2018-09-22T13:22:11.121Z,5.20
2018-09-22T13:24:40.788Z,6.60
2018-09-22T13:27:10.547Z,7.13
2018-09-22T13:29:40.290Z,8.97
2018-09-22T13:32:09.834Z,6.70
2018-09-22T13:34:39.475Z,5.33
2018-09-22T13:37:09.091Z,5.27
2018-09-22T13:39:38.667Z,6.93
2018-09-22T13:42:08.280Z,7.70
2018-09-22T13:44:37.980Z,7.00
2018-09-22T13:47:07.721Z,7.57
2018-09-22T13:49:37.320Z,5.57
2018-09-22T13:52:07.010Z,7.03
2018-09-22T13:54:36.695Z,8.20
2018-09-22T13:57:06.553Z,8.30
2018-09-22T13:59:36.416Z,9.43
2018-09-22T14:02:06.001Z,5.70
2018-09-22T14:04:35.669Z,6.50
2018-09-22T14:07:05.385Z,5.83
2018-09-22T14:09:35.071Z,6.83
2018-09-22T14:12:04.803Z,4.77
2018-09-22T14:14:34.559Z,4.37
2018-09-22T14:17:04.257Z,8.80
2018-09-22T14:19:40.871Z,6.60
2018-09-22T14:22:10.519Z,4.73
2018-09-22T14:24:40.307Z,7.33
2018-09-22T14:27:10.035Z,5.50
2018-09-22T14:29:39.738Z,7.23
2018-09-22T14:32:09.556Z,5.87
2018-09-22T14:34:39.177Z,8.67
2018-09-22T14:37:09.365Z,6.10
2018-09-22T14:39:39.099Z,5.60
2018-09-22T14:42:08.704Z,6.80
2018-09-22T14:44:38.260Z,4.60
2018-09-22T14:47:07.924Z,7.87
2018-09-22T14:49:37.567Z,6.97
2018-09-22T14:52:07.166Z,8.33
2018-09-22T14:54:37.107Z,5.70
2018-09-22T14:57:07.574Z,4.10
2018-09-22T14:59:37.149Z,5.47
2018-09-22T15:02:06.860Z,6.80
2018-09-22T15:04:36.554Z,8.20
2018-09-22T15:07:06.246Z,8.53
2018-09-22T15:09:35.804Z,9.13
2018-09-22T15:12:05.467Z,5.27
2018-09-22T15:14:35.346Z,6.80
2018-09-22T15:17:05.023Z,7.60
2018-09-22T15:19:34.669Z,9.97
2018-09-22T15:22:04.474Z,7.97
2018-09-22T15:24:34.124Z,8.63
2018-09-22T15:27:03.836Z,7.10
2018-09-22T15:29:33.588Z,6.77
2018-09-22T15:32:03.189Z,8.10
2018-09-22T15:34:32.829Z,10.93
2018-09-22T15:37:02.495Z,7.67
2018-09-22T15:39:32.152Z,7.63
2018-09-22T15:42:01.851Z,8.73
2018-09-22T15:44:31.627Z,11.60
2018-09-22T15:47:01.374Z,11.80
2018-09-22T15:49:31.039Z,11.93
2018-09-22T15:52:00.628Z,7.03
2018-09-22T15:54:30.480Z,8.93
2018-09-22T15:57:00.485Z,7.87
2018-09-22T15:59:30.187Z,13.63
2018-09-22T16:01:59.903Z,13.17
2018-09-22T16:04:29.556Z,9.47
2018-09-22T16:06:59.203Z,9.57
2018-09-22T16:09:28.911Z,13.17
2018-09-22T16:11:58.587Z,7.97
2018-09-22T16:14:28.230Z,4.67
2018-09-22T16:16:57.883Z,9.53
2018-09-22T16:19:27.830Z,4.40
2018-09-22T16:21:57.421Z,9.17
2018-09-22T16:24:27.325Z,5.83
2018-09-22T16:26:56.877Z,5.40
2018-09-22T16:29:27.232Z,4.20
2018-09-22T16:31:56.853Z,4.30
2018-09-22T16:34:26.839Z,4.73
2018-09-22T16:36:56.463Z,3.70
2018-09-22T16:39:26.504Z,3.37
2018-09-22T16:41:56.276Z,2.37
2018-09-22T16:44:26.132Z,4.37
2018-09-22T16:46:55.743Z,5.80
2018-09-22T16:49:25.425Z,3.93
2018-09-22T16:51:55.016Z,6.23
2018-09-22T16:54:24.870Z,5.80
2018-09-22T16:56:54.575Z,5.50
2018-09-22T16:59:24.077Z,6.23
2018-09-22T17:01:53.725Z,4.23
2018-09-22T17:04:23.348Z,5.07
2018-09-22T17:06:52.942Z,7.77
2018-09-22T17:09:22.788Z,3.97
2018-09-22T17:11:52.441Z,9.57
2018-09-22T17:14:22.115Z,4.60
2018-09-22T17:16:51.747Z,7.30
2018-09-22T17:19:21.465Z,2.60
2018-09-22T17:21:51.297Z,5.20
2018-09-22T17:24:20.993Z,6.63
2018-09-22T17:26:50.684Z,4.50
2018-09-22T17:29:27.017Z,6.57
2018-09-22T17:31:56.778Z,7.33
2018-09-22T17:34:26.681Z,8.40
2018-09-22T17:36:56.485Z,7.80
2018-09-22T17:39:26.151Z,12.43
2018-09-22T17:41:55.810Z,8.80
2018-09-22T17:44:25.457Z,14.67
2018-09-22T17:46:55.098Z,10.97
2018-09-22T17:49:24.974Z,7.83
2018-09-22T17:51:54.544Z,9.17
2018-09-22T17:54:24.266Z,7.03
2018-09-22T17:56:54.141Z,9.67
2018-09-22T17:59:23.914Z,6.73
2018-09-22T18:01:53.596Z,6.73
2018-09-22T18:04:23.253Z,10.23
2018-09-22T18:06:52.854Z,8.43
2018-09-22T18:09:22.553Z,9.87
2018-09-22T18:11:52.275Z,10.90
2018-09-22T18:14:21.955Z,8.40
2018-09-22T18:16:51.642Z,9.27
2018-09-22T18:19:21.348Z,11.23
2018-09-22T18:21:50.945Z,7.60
2018-09-22T18:24:20.604Z,9.13
2018-09-22T18:26:50.359Z,11.57
2018-09-22T18:29:19.971Z,11.17
2018-09-22T18:31:49.558Z,8.73
2018-09-22T18:34:19.120Z,8.07
2018-09-22T18:36:48.759Z,7.93
2018-09-22T18:39:18.357Z,9.27
2018-09-22T18:41:48.189Z,7.20
2018-09-22T18:44:17.826Z,9.70
2018-09-22T18:46:47.478Z,9.77
2018-09-22T18:49:17.104Z,11.77
2018-09-22T18:51:46.719Z,9.30
2018-09-22T18:54:16.352Z,11.03
2018-09-22T18:56:46.053Z,9.17
2018-09-22T18:59:15.668Z,8.43
2018-09-22T19:01:45.299Z,9.37
2018-09-22T19:04:15.073Z,12.80
2018-09-22T19:06:44.696Z,9.33
2018-09-22T19:09:14.632Z,10.78
2018-09-22T19:11:44.342Z,11.63
2018-09-22T19:14:19.972Z,12.77
2018-09-22T19:16:54.450Z,12.77
2018-09-22T19:19:34.870Z,14.03
2018-09-22T19:22:07.952Z,15.20
2018-09-22T19:24:44.907Z,14.60
2018-09-22T19:27:23.026Z,14.20
2018-09-22T19:29:58.536Z,12.97
2018-09-22T19:32:32.622Z,24.03
2018-09-22T19:35:05.667Z,14.73
2018-09-22T19:37:43.179Z,15.40
2018-09-22T19:41:15.509Z,13.53
2018-09-22T19:43:53.593Z,21.50
2018-09-22T19:46:27.998Z,17.73
2018-09-22T19:49:01.023Z,13.40
2018-09-22T19:51:34.409Z,20.63
2018-09-22T19:54:05.039Z,15.33
2018-09-22T19:56:34.661Z,14.97
2018-09-22T19:59:04.280Z,16.37
2018-09-22T20:01:34.024Z,14.13
2018-09-22T20:04:03.690Z,16.97
2018-09-22T20:06:33.449Z,16.03
2018-09-22T20:09:03.260Z,14.60
2018-09-22T20:11:32.983Z,14.13
2018-09-22T20:14:02.659Z,14.73
2018-09-22T20:16:32.259Z,14.13
2018-09-22T20:19:01.934Z,13.57
2018-09-22T20:21:31.571Z,13.33
2018-09-22T20:24:01.243Z,13.47
2018-09-22T20:26:30.877Z,11.70
2018-09-22T20:29:00.543Z,15.73
2018-09-22T20:31:30.198Z,13.97
2018-09-22T20:33:59.905Z,14.57
2018-09-22T20:36:29.583Z,14.50
2018-09-22T20:38:59.218Z,12.70
2018-09-22T20:41:28.923Z,15.37
2018-09-22T20:43:58.647Z,18.60
2018-09-22T20:46:28.369Z,17.93
2018-09-22T20:48:57.993Z,23.47
2018-09-22T20:51:27.690Z,13.37
2018-09-22T20:53:57.415Z,13.93
2018-09-22T20:56:27.036Z,16.63
2018-09-22T20:58:56.604Z,13.77
2018-09-22T21:01:26.225Z,14.77
2018-09-22T21:03:55.986Z,15.10
2018-09-22T21:06:25.611Z,13.00
2018-09-22T21:08:55.288Z,14.40
2018-09-22T21:11:24.904Z,13.17
2018-09-22T21:13:54.573Z,13.60
2018-09-22T21:16:24.223Z,12.30
2018-09-22T21:18:54.096Z,11.70
2018-09-22T21:21:23.693Z,13.03
2018-09-22T21:23:53.375Z,13.00
2018-09-22T21:26:23.005Z,14.00
2018-09-22T21:28:53.608Z,10.57
2018-09-22T21:31:23.422Z,13.60
2018-09-22T21:33:53.193Z,11.07
2018-09-22T21:36:22.817Z,13.40
2018-09-22T21:38:52.888Z,12.07
2018-09-22T21:41:22.468Z,10.50
2018-09-22T21:43:52.480Z,11.37
2018-09-22T21:46:22.076Z,12.63
2018-09-22T21:48:52.355Z,12.70
2018-09-22T21:51:22.076Z,12.03
2018-09-22T21:53:51.813Z,12.03
2018-09-22T21:56:21.398Z,12.77
2018-09-22T21:58:51.313Z,12.33
2018-09-22T22:01:26.258Z,13.50
2018-09-22T22:03:56.043Z,12.20
2018-09-22T22:06:25.728Z,14.07
2018-09-22T22:08:56.112Z,11.83
2018-09-22T22:11:26.178Z,14.93
2018-09-22T22:13:56.356Z,14.90
2018-09-22T22:16:26.418Z,20.70
2018-09-22T22:18:56.459Z,13.00
2018-09-22T22:21:26.236Z,13.67
2018-09-22T22:23:56.238Z,15.73
2018-09-22T22:26:25.996Z,13.27
2018-09-22T22:28:55.900Z,16.47
2018-09-22T22:31:25.760Z,15.73
2018-09-22T22:33:55.805Z,18.43
2018-09-22T22:36:25.432Z,15.77
2018-09-22T22:38:55.150Z,16.13
2018-09-22T22:41:24.829Z,16.57
2018-09-22T22:43:54.614Z,18.03
2018-09-22T22:46:24.221Z,17.20
2018-09-22T22:48:53.864Z,21.00
2018-09-22T22:51:23.607Z,22.47
2018-09-22T22:53:53.319Z,21.10
2018-09-22T22:56:23.069Z,22.40
2018-09-22T22:58:52.706Z,22.20
2018-09-22T23:01:22.409Z,23.07
2018-09-22T23:03:52.079Z,26.13
2018-09-22T23:06:21.759Z,23.83
2018-09-22T23:08:51.395Z,22.13
2018-09-22T23:11:21.087Z,24.00
2018-09-22T23:13:50.723Z,25.63
2018-09-22T23:16:20.383Z,27.30
2018-09-22T23:18:50.031Z,23.40
2018-09-22T23:21:19.627Z,25.93
2018-09-22T23:23:49.224Z,24.60
2018-09-22T23:26:18.986Z,24.27
2018-09-22T23:28:48.691Z,28.70
2018-09-22T23:31:18.329Z,27.13
2018-09-22T23:33:47.861Z,24.47
2018-09-22T23:36:17.553Z,27.00
2018-09-22T23:38:47.197Z,30.77
2018-09-22T23:41:16.829Z,27.87
2018-09-22T23:43:46.465Z,28.13
2018-09-22T23:46:16.074Z,29.47
2018-09-22T23:48:45.648Z,27.03
2018-09-22T23:51:15.275Z,28.77
2018-09-22T23:53:44.819Z,30.10
2018-09-22T23:56:14.381Z,29.20
2018-09-22T23:58:44.032Z,32.60
